Time;durP1;ratioP1;P1;durP2;ratioP2;P2;SDS_P1;SDS_P2;PMS_P1;PMS_P2;Temp;Humidity;BMP_temperature;BMP_pressure;BME280_temperature;BME280_humidity;BME280_pressure;Samples;Min_cycle;Max_cycle;Signal;HPM_P1;HPM_P2
2022/11/03 00:01:50;;;;;;;17.77;6.85;;;;;;;;;;5051214;28;20661;-76
2022/11/03 00:04:17;;;;;;;14.30;6.50;;;;;;;;;;5048894;28;20029;-76
2022/11/03 00:06:44;;;;;;;14.43;7.10;;;;;;;;;;5049521;28;20036;-76
2022/11/03 00:09:11;;;;;;;15.57;7.03;;;;;;;;;;5048689;28;20033;-76
2022/11/03 00:11:37;;;;;;;13.80;6.68;;;;;;;;;;5050871;28;20386;-76
2022/11/03 00:14:04;;;;;;;14.38;7.20;;;;;;;;;;5032456;28;20036;-75
2022/11/03 00:16:30;;;;;;;15.40;7.50;;;;;;;;;;5050680;28;20075;-76
2022/11/03 00:18:56;;;;;;;16.02;6.93;;;;;;;;;;5049315;28;20029;-75
2022/11/03 00:21:22;;;;;;;13.93;6.95;;;;;;;;;;5046593;28;20550;-76
2022/11/03 00:23:48;;;;;;;15.40;7.25;;;;;;;;;;5042599;28;20067;-76
2022/11/03 00:26:22;;;;;;;13.23;6.45;;;;;;;;;;5050457;28;20047;-76
2022/11/03 00:28:51;;;;;;;13.15;6.50;;;;;;;;;;5039546;28;20044;-76
2022/11/03 00:31:18;;;;;;;11.75;6.28;;;;;;;;;;5050257;28;20024;-76
2022/11/03 00:33:45;;;;;;;11.13;5.55;;;;;;;;;;5041838;28;20036;-76
2022/11/03 00:36:12;;;;;;;14.57;6.18;;;;;;;;;;5037680;28;20034;-76
2022/11/03 00:38:38;;;;;;;20.52;6.25;;;;;;;;;;5030553;28;20045;-76
2022/11/03 00:41:05;;;;;;;8.85;5.22;;;;;;;;;;5042833;28;20044;-76
2022/11/03 00:43:32;;;;;;;13.98;5.95;;;;;;;;;;5038209;28;20025;-76
2022/11/03 00:45:58;;;;;;;14.93;5.90;;;;;;;;;;5039782;28;20053;-76
2022/11/03 00:48:33;;;;;;;11.65;5.38;;;;;;;;;;5042242;28;20029;-76
2022/11/03 00:51:16;;;;;;;12.07;5.93;;;;;;;;;;5050129;28;20029;-76
2022/11/03 00:53:41;;;;;;;;;;;;;;;;;;5048384;28;20036;-76
2022/11/03 00:56:10;;;;;;;11.35;4.88;;;;;;;;;;5053936;28;19908;-76
2022/11/03 00:58:36;;;;;;;9.13;5.35;;;;;;;;;;5047529;28;20120;-76
2022/11/03 01:01:07;;;;;;;12.70;5.15;;;;;;;;;;5034081;28;20435;-76
2022/11/03 01:03:34;;;;;;;11.35;5.70;;;;;;;;;;5033413;28;20091;-75
2022/11/03 01:08:45;;;;;;;12.25;4.80;;;;;;;;;;5040636;28;20438;-76
2022/11/03 01:14:00;;;;;;;14.02;5.05;;;;;;;;;;5045933;28;20095;-76
2022/11/03 01:16:26;;;;;;;9.73;4.10;;;;;;;;;;5035964;28;20033;-76
2022/11/03 01:18:52;;;;;;;9.70;3.40;;;;;;;;;;5033487;28;20057;-75
2022/11/03 01:21:19;;;;;;;10.90;3.40;;;;;;;;;;5050616;28;20505;-76
2022/11/03 01:23:45;;;;;;;12.80;3.60;;;;;;;;;;5053225;28;20037;-76
2022/11/03 01:26:11;;;;;;;9.35;3.10;;;;;;;;;;5037397;28;20414;-76
2022/11/03 01:28:38;;;;;;;9.18;3.63;;;;;;;;;;5047527;28;20057;-75
2022/11/03 01:31:05;;;;;;;14.82;5.10;;;;;;;;;;5033287;28;20120;-76
2022/11/03 01:33:31;;;;;;;10.15;3.70;;;;;;;;;;5049399;28;20033;-76
2022/11/03 01:35:57;;;;;;;9.75;3.42;;;;;;;;;;5033457;28;20037;-75
2022/11/03 01:38:23;;;;;;;22.15;6.38;;;;;;;;;;5049018;28;20039;-75
2022/11/03 01:40:49;;;;;;;11.45;4.38;;;;;;;;;;5048774;28;20029;-75
2022/11/03 01:43:22;;;;;;;9.50;3.92;;;;;;;;;;5050819;28;20567;-76
2022/11/03 01:45:56;;;;;;;8.68;4.03;;;;;;;;;;5048570;28;20065;-76
2022/11/03 01:48:23;;;;;;;11.43;4.45;;;;;;;;;;5049855;28;20068;-76
2022/11/03 01:50:51;;;;;;;12.10;4.50;;;;;;;;;;5053322;28;20028;-75
2022/11/03 01:53:18;;;;;;;13.50;4.57;;;;;;;;;;5044110;28;20104;-76
2022/11/03 01:55:44;;;;;;;11.18;4.20;;;;;;;;;;5053217;28;20032;-76
2022/11/03 01:58:16;;;;;;;12.70;4.55;;;;;;;;;;5052606;28;20033;-76
2022/11/03 02:00:42;;;;;;;;;;;;;;;;;;5047048;28;20113;-76
2022/11/03 02:03:08;;;;;;;10.77;5.05;;;;;;;;;;5050076;28;20425;-76
2022/11/03 02:05:35;;;;;;;15.07;4.00;;;;;;;;;;5052564;28;20459;-76
2022/11/03 02:08:05;;;;;;;12.10;4.47;;;;;;;;;;5052749;28;20033;-75
2022/11/03 02:10:31;;;;;;;13.30;3.95;;;;;;;;;;5051891;28;20386;-76
2022/11/03 02:12:57;;;;;;;11.45;4.53;;;;;;;;;;5038334;28;20025;-76
2022/11/03 02:15:23;;;;;;;10.45;3.92;;;;;;;;;;5043682;28;20100;-76
2022/11/03 02:17:50;;;;;;;10.50;4.18;;;;;;;;;;5044121;28;20525;-76
2022/11/03 02:20:22;;;;;;;9.00;3.42;;;;;;;;;;5052845;28;20033;-76
2022/11/03 02:22:55;;;;;;;9.65;3.60;;;;;;;;;;5052308;28;20040;-75
2022/11/03 02:25:30;;;;;;;15.13;4.40;;;;;;;;;;5048589;28;20029;-76
2022/11/03 02:27:56;;;;;;;10.10;3.97;;;;;;;;;;5052440;28;20068;-76
2022/11/03 02:30:22;;;;;;;10.32;3.97;;;;;;;;;;5052423;28;20459;-76
2022/11/03 02:32:48;;;;;;;11.02;3.85;;;;;;;;;;5051719;28;20104;-75
2022/11/03 02:35:21;;;;;;;9.18;3.83;;;;;;;;;;5052364;28;20033;-76
2022/11/03 02:37:48;;;;;;;13.57;4.78;;;;;;;;;;5042797;28;20108;-76
2022/11/03 02:40:17;;;;;;;13.23;4.70;;;;;;;;;;5039911;28;20039;-76
2022/11/03 02:42:46;;;;;;;12.43;4.55;;;;;;;;;;5045168;28;20778;-76
2022/11/03 02:45:13;;;;;;;12.30;3.75;;;;;;;;;;5036767;28;20056;-76
2022/11/03 02:47:40;;;;;;;14.88;4.30;;;;;;;;;;5044809;28;20116;-76
2022/11/03 02:50:09;;;;;;;13.60;3.85;;;;;;;;;;5051897;28;20052;-76
2022/11/03 02:52:35;;;;;;;9.95;2.55;;;;;;;;;;5051251;28;20675;-76
2022/11/03 02:55:16;;;;;;;9.23;3.90;;;;;;;;;;5051961;28;20040;-75
2022/11/03 02:57:57;;;;;;;14.20;3.78;;;;;;;;;;5035845;28;20037;-76
2022/11/03 03:00:23;;;;;;;12.50;3.25;;;;;;;;;;5042504;28;20142;-76
2022/11/03 03:02:57;;;;;;;9.90;3.72;;;;;;;;;;5051499;28;20040;-76
2022/11/03 03:05:25;;;;;;;8.93;3.47;;;;;;;;;;5049458;28;20041;-76
2022/11/03 03:07:52;;;;;;;8.70;4.35;;;;;;;;;;5038260;28;20102;-76
2022/11/03 03:10:23;;;;;;;11.05;3.90;;;;;;;;;;5045755;28;20029;-76
2022/11/03 03:12:52;;;;;;;10.45;4.00;;;;;;;;;;5048494;28;20037;-75
2022/11/03 03:15:19;;;;;;;7.47;3.20;;;;;;;;;;5042587;28;20068;-76
2022/11/03 03:17:53;;;;;;;11.75;3.95;;;;;;;;;;5051946;28;20091;-75
2022/11/03 03:20:27;;;;;;;8.65;3.58;;;;;;;;;;5040852;28;20032;-75
2022/11/03 03:22:58;;;;;;;8.73;3.20;;;;;;;;;;5041531;28;20041;-75
2022/11/03 03:25:50;;;;;;;9.45;3.72;;;;;;;;;;5040298;28;20040;-76
2022/11/03 03:28:19;;;;;;;8.77;2.80;;;;;;;;;;5033821;28;20060;-76
2022/11/03 03:30:45;;;;;;;10.95;3.58;;;;;;;;;;5046269;28;20037;-76
2022/11/03 03:33:12;;;;;;;8.23;2.72;;;;;;;;;;5031854;28;20029;-76
2022/11/03 03:35:41;;;;;;;10.95;3.05;;;;;;;;;;5049146;28;20029;-76
2022/11/03 03:38:28;;;;;;;8.55;2.90;;;;;;;;;;5051016;28;20026;-75
2022/11/03 03:40:55;;;;;;;7.85;2.92;;;;;;;;;;5051564;28;20112;-76
2022/11/03 03:43:22;;;;;;;8.43;3.20;;;;;;;;;;5050996;28;20025;-75
2022/11/03 03:45:49;;;;;;;10.32;3.33;;;;;;;;;;5050641;28;20080;-76
2022/11/03 03:48:15;;;;;;;8.32;2.92;;;;;;;;;;5050774;28;20021;-75
2022/11/03 03:50:42;;;;;;;13.93;2.55;;;;;;;;;;5044407;28;20112;-76
2022/11/03 03:53:10;;;;;;;10.10;2.78;;;;;;;;;;5050677;28;20775;-76
2022/11/03 03:55:38;;;;;;;10.30;3.60;;;;;;;;;;5050831;28;20040;-76
2022/11/03 03:58:05;;;;;;;13.07;3.38;;;;;;;;;;5035959;28;20402;-76
2022/11/03 04:00:31;;;;;;;8.77;3.10;;;;;;;;;;5044218;28;20454;-75
2022/11/03 04:03:00;;;;;;;7.03;2.80;;;;;;;;;;5041761;28;20079;-76
2022/11/03 04:05:26;;;;;;;9.25;3.42;;;;;;;;;;5043726;28;20045;-75
2022/11/03 04:07:52;;;;;;;6.32;2.67;;;;;;;;;;5040532;28;20029;-75
2022/11/03 04:10:20;;;;;;;8.25;4.03;;;;;;;;;;5046884;28;20112;-76
2022/11/03 04:23:46;;;;;;;6.78;2.95;;;;;;;;;;5030927;28;20214;-75
2022/11/03 04:26:12;;;;;;;8.27;3.03;;;;;;;;;;5040298;28;20547;-75
2022/11/03 04:28:39;;;;;;;7.88;3.28;;;;;;;;;;5050511;28;20033;-75
2022/11/03 04:31:06;;;;;;;6.55;2.40;;;;;;;;;;5048801;28;20029;-75
2022/11/03 04:33:32;;;;;;;6.57;3.13;;;;;;;;;;5050402;28;20104;-76
2022/11/03 04:35:59;;;;;;;8.60;3.05;;;;;;;;;;5046756;28;20096;-76
2022/11/03 04:38:26;;;;;;;8.98;3.40;;;;;;;;;;5053689;28;20095;-75
2022/11/03 04:40:58;;;;;;;8.18;3.15;;;;;;;;;;5047735;28;20033;-75
2022/11/03 04:43:34;;;;;;;9.13;3.30;;;;;;;;;;5044973;28;20030;-76
2022/11/03 04:46:01;;;;;;;7.50;2.92;;;;;;;;;;5051400;28;20057;-75
2022/11/03 04:48:28;;;;;;;9.23;3.40;;;;;;;;;;5047292;28;20036;-76
2022/11/03 04:50:55;;;;;;;7.47;3.17;;;;;;;;;;5050954;28;20033;-75
2022/11/03 04:53:22;;;;;;;7.07;2.78;;;;;;;;;;5050977;28;20029;-75
2022/11/03 04:55:50;;;;;;;6.85;3.30;;;;;;;;;;5048027;28;20025;-75
2022/11/03 04:58:20;;;;;;;14.07;5.30;;;;;;;;;;5052752;28;20032;-75
2022/11/03 05:00:47;;;;;;;13.13;4.30;;;;;;;;;;5034033;28;20117;-75
2022/11/03 05:03:23;;;;;;;12.90;4.65;;;;;;;;;;5038737;28;20108;-76
2022/11/03 05:05:49;;;;;;;10.27;4.22;;;;;;;;;;5059239;28;20029;-75
2022/11/03 05:08:16;;;;;;;10.07;4.85;;;;;;;;;;5048162;28;20025;-76
2022/11/03 05:10:42;;;;;;;9.65;4.28;;;;;;;;;;5053978;28;20025;-76
2022/11/03 05:13:20;;;;;;;9.55;4.18;;;;;;;;;;5045702;28;20031;-76
2022/11/03 05:15:47;;;;;;;10.55;3.80;;;;;;;;;;5034072;28;20112;-75
2022/11/03 05:18:16;;;;;;;7.88;3.33;;;;;;;;;;5045383;28;20028;-76
2022/11/03 05:20:46;;;;;;;10.23;5.97;;;;;;;;;;5035878;28;20135;-76
2022/11/03 05:23:12;;;;;;;14.77;6.38;;;;;;;;;;5053603;28;20025;-75
2022/11/03 05:25:40;;;;;;;14.15;6.35;;;;;;;;;;5043391;28;20021;-76
2022/11/03 05:28:15;;;;;;;12.10;4.78;;;;;;;;;;5045614;28;20025;-76
2022/11/03 05:30:41;;;;;;;12.35;4.88;;;;;;;;;;5047155;28;20463;-75
2022/11/03 05:33:15;;;;;;;13.20;5.70;;;;;;;;;;5051499;28;20043;-76
2022/11/03 05:35:41;;;;;;;15.18;4.72;;;;;;;;;;5048459;28;20464;-75
2022/11/03 05:38:14;;;;;;;11.40;4.47;;;;;;;;;;5049393;28;20030;-76
2022/11/03 05:40:40;;;;;;;9.65;4.68;;;;;;;;;;5032233;28;20087;-76
2022/11/03 05:43:12;;;;;;;12.98;6.00;;;;;;;;;;5035055;28;20735;-76
2022/11/03 05:45:38;;;;;;;9.75;4.50;;;;;;;;;;5041616;28;20064;-76
2022/11/03 05:48:11;;;;;;;12.65;5.20;;;;;;;;;;5041764;28;20044;-76
2022/11/03 05:50:40;;;;;;;14.93;5.05;;;;;;;;;;5052857;28;20048;-76
2022/11/03 05:53:06;;;;;;;12.07;4.78;;;;;;;;;;5053532;28;20025;-76
2022/11/03 05:55:35;;;;;;;9.52;4.68;;;;;;;;;;5053969;28;20104;-75
2022/11/03 05:58:12;;;;;;;9.15;4.93;;;;;;;;;;5053288;28;20724;-76
2022/11/03 06:00:39;;;;;;;14.65;5.57;;;;;;;;;;5052429;28;20056;-75
2022/11/03 06:03:05;;;;;;;12.93;6.30;;;;;;;;;;5053179;28;20025;-75
2022/11/03 06:05:33;;;;;;;13.27;5.28;;;;;;;;;;5046944;28;20037;-76
2022/11/03 06:08:03;;;;;;;15.32;5.97;;;;;;;;;;5036524;28;20029;-76
2022/11/03 06:10:31;;;;;;;14.63;5.35;;;;;;;;;;5036650;28;20036;-75
2022/11/03 06:13:16;;;;;;;15.73;5.70;;;;;;;;;;5047793;28;20033;-75
2022/11/03 06:15:43;;;;;;;15.50;5.88;;;;;;;;;;5042908;28;20025;-76
2022/11/03 06:18:15;;;;;;;12.45;5.72;;;;;;;;;;5041727;28;20033;-75
2022/11/03 06:20:42;;;;;;;11.02;4.93;;;;;;;;;;5044989;28;20033;-75
2022/11/03 06:23:14;;;;;;;14.90;6.30;;;;;;;;;;5058737;28;20029;-75
2022/11/03 06:25:42;;;;;;;;;;;;;;;;;;5069327;28;20407;-75
2022/11/03 06:28:10;;;;;;;16.00;6.25;;;;;;;;;;5044106;28;20350;-75
2022/11/03 06:30:40;;;;;;;15.57;5.85;;;;;;;;;;5048454;28;20108;-75
2022/11/03 06:33:29;;;;;;;18.23;6.30;;;;;;;;;;5038886;28;20107;-75
2022/11/03 06:35:59;;;;;;;12.77;4.85;;;;;;;;;;5043147;28;20120;-76
2022/11/03 06:38:28;;;;;;;17.23;6.10;;;;;;;;;;5048628;28;20374;-78
2022/11/03 06:40:54;;;;;;;20.00;6.78;;;;;;;;;;5045605;28;20033;-76
2022/11/03 06:43:32;;;;;;;12.73;5.88;;;;;;;;;;5040503;28;20677;-73
2022/11/03 06:45:58;;;;;;;13.93;5.72;;;;;;;;;;5039763;28;20045;-71
2022/11/03 06:48:26;;;;;;;15.32;6.32;;;;;;;;;;5036077;28;20037;-71
2022/11/03 06:50:52;;;;;;;16.80;5.95;;;;;;;;;;5038529;28;20033;-71
2022/11/03 06:53:23;;;;;;;14.85;6.32;;;;;;;;;;5037810;28;20033;-72
2022/11/03 06:55:49;;;;;;;17.17;6.28;;;;;;;;;;5041505;28;20032;-72
2022/11/03 06:58:19;;;;;;;17.98;6.38;;;;;;;;;;5038773;28;20049;-72
2022/11/03 07:00:45;;;;;;;17.08;6.45;;;;;;;;;;5037949;28;20032;-71
2022/11/03 07:03:17;;;;;;;11.70;5.18;;;;;;;;;;5036269;28;20047;-72
2022/11/03 07:05:46;;;;;;;14.05;5.35;;;;;;;;;;5024132;28;20029;-71
2022/11/03 07:08:21;;;;;;;14.48;5.03;;;;;;;;;;5033726;28;20076;-71
2022/11/03 07:10:47;;;;;;;13.82;4.95;;;;;;;;;;5038854;28;20057;-72
2022/11/03 07:13:17;;;;;;;15.80;7.82;;;;;;;;;;5040623;28;20025;-72
2022/11/03 07:15:44;;;;;;;15.50;7.60;;;;;;;;;;5032889;28;20029;-71
2022/11/03 07:18:27;;;;;;;19.42;7.82;;;;;;;;;;5037914;28;20029;-71
2022/11/03 07:20:53;;;;;;;;;;;;;;;;;;5034183;28;20480;-71
2022/11/03 07:23:21;;;;;;;14.40;6.65;;;;;;;;;;5033672;28;19917;-71
2022/11/03 07:25:52;;;;;;;15.52;6.35;;;;;;;;;;5030509;28;20033;-71
2022/11/03 07:28:18;;;;;;;15.75;6.40;;;;;;;;;;5036274;28;20041;-71
2022/11/03 07:30:44;;;;;;;19.25;6.47;;;;;;;;;;5037668;28;20090;-71
2022/11/03 07:33:22;;;;;;;16.23;5.75;;;;;;;;;;5033308;28;20115;-71
2022/11/03 07:35:49;;;;;;;15.20;6.22;;;;;;;;;;5020505;28;20044;-72
2022/11/03 07:38:19;;;;;;;12.60;5.43;;;;;;;;;;5034005;28;20029;-71
2022/11/03 07:40:45;;;;;;;17.25;7.15;;;;;;;;;;5037706;28;20072;-71
2022/11/03 07:43:17;;;;;;;15.18;6.47;;;;;;;;;;5037681;28;20064;-71
2022/11/03 07:45:44;;;;;;;24.08;7.40;;;;;;;;;;5049254;28;20045;-71
2022/11/03 07:48:16;;;;;;;15.00;6.50;;;;;;;;;;5039191;28;20029;-71
2022/11/03 07:50:42;;;;;;;15.90;5.75;;;;;;;;;;5039585;28;20037;-71
2022/11/03 07:53:27;;;;;;;14.85;7.10;;;;;;;;;;5039125;28;20075;-71
2022/11/03 07:55:55;;;;;;;17.77;7.03;;;;;;;;;;5036145;28;20067;-71
2022/11/03 07:58:35;;;;;;;11.48;5.68;;;;;;;;;;5039062;28;20029;-71
2022/11/03 08:01:01;;;;;;;12.43;5.88;;;;;;;;;;5041864;28;20040;-71
2022/11/03 08:03:33;;;;;;;17.20;6.43;;;;;;;;;;5032202;28;20030;-71
2022/11/03 08:05:59;;;;;;;21.42;8.45;;;;;;;;;;5035965;28;20037;-71
2022/11/03 08:08:25;;;;;;;16.83;7.88;;;;;;;;;;5045463;28;20586;-71
2022/11/03 08:10:51;;;;;;;21.35;7.05;;;;;;;;;;5032663;28;20125;-71
2022/11/03 08:13:17;;;;;;;14.98;7.75;;;;;;;;;;5040709;28;20883;-72
2022/11/03 08:15:43;;;;;;;12.02;6.60;;;;;;;;;;5035371;28;20038;-71
2022/11/03 08:18:09;;;;;;;16.90;8.07;;;;;;;;;;5039673;28;20628;-71
2022/11/03 08:20:35;;;;;;;21.42;9.98;;;;;;;;;;5038616;28;20040;-71
2022/11/03 08:23:01;;;;;;;18.52;9.30;;;;;;;;;;5041407;28;20033;-72
2022/11/03 08:25:27;;;;;;;14.20;7.38;;;;;;;;;;5036384;28;20041;-72
2022/11/03 08:27:53;;;;;;;13.63;6.50;;;;;;;;;;5039847;28;20033;-72
2022/11/03 08:30:18;;;;;;;11.23;6.13;;;;;;;;;;5035632;28;21122;-72
2022/11/03 08:32:44;;;;;;;14.57;7.40;;;;;;;;;;5040004;28;20028;-72
2022/11/03 08:35:10;;;;;;;17.85;7.20;;;;;;;;;;5019549;28;20474;-71
2022/11/03 08:37:36;;;;;;;13.60;7.70;;;;;;;;;;5037004;28;20052;-72
2022/11/03 08:40:03;;;;;;;15.32;7.07;;;;;;;;;;5038909;28;20040;-72
2022/11/03 08:42:29;;;;;;;12.25;7.35;;;;;;;;;;5031411;28;20120;-72
2022/11/03 08:44:55;;;;;;;11.63;7.47;;;;;;;;;;5031336;28;20543;-72
2022/11/03 08:47:21;;;;;;;14.10;7.28;;;;;;;;;;5040096;28;20052;-72
2022/11/03 08:49:47;;;;;;;16.60;7.28;;;;;;;;;;5039216;28;20072;-71
2022/11/03 08:52:15;;;;;;;12.85;6.13;;;;;;;;;;5032905;28;20116;-72
2022/11/03 08:54:41;;;;;;;16.88;6.13;;;;;;;;;;5038317;28;20079;-72
2022/11/03 08:57:07;;;;;;;25.48;13.77;;;;;;;;;;5037547;28;20383;-71
2022/11/03 08:59:33;;;;;;;28.52;15.13;;;;;;;;;;5035507;28;20128;-72
2022/11/03 09:01:59;;;;;;;23.05;13.38;;;;;;;;;;5041329;28;20037;-71
2022/11/03 09:04:25;;;;;;;18.58;11.95;;;;;;;;;;5043626;28;20033;-72
2022/11/03 09:06:51;;;;;;;17.88;11.73;;;;;;;;;;5036368;28;20036;-71
2022/11/03 09:09:17;;;;;;;16.77;9.20;;;;;;;;;;5035332;28;20048;-72
2022/11/03 09:11:43;;;;;;;13.60;7.97;;;;;;;;;;5037043;28;20030;-72
2022/11/03 09:14:09;;;;;;;13.32;6.43;;;;;;;;;;5038772;28;20068;-72
2022/11/03 09:16:35;;;;;;;9.70;3.45;;;;;;;;;;5037937;28;20056;-71
2022/11/03 09:19:01;;;;;;;14.50;7.55;;;;;;;;;;5039782;28;20095;-72
2022/11/03 09:21:27;;;;;;;12.63;4.88;;;;;;;;;;5043742;28;20382;-72
2022/11/03 09:23:53;;;;;;;10.05;3.25;;;;;;;;;;5023845;28;20045;-72
2022/11/03 09:26:19;;;;;;;8.88;3.60;;;;;;;;;;5035676;28;20048;-71
2022/11/03 09:28:45;;;;;;;15.77;5.10;;;;;;;;;;5040850;28;20893;-72
2022/11/03 09:31:11;;;;;;;8.45;3.75;;;;;;;;;;5033758;28;20025;-72
2022/11/03 09:33:37;;;;;;;8.68;3.58;;;;;;;;;;5035585;28;20108;-72
2022/11/03 09:36:03;;;;;;;11.35;5.35;;;;;;;;;;5036253;28;20809;-73
2022/11/03 09:38:29;;;;;;;9.65;3.97;;;;;;;;;;5034432;28;20021;-72
2022/11/03 09:40:55;;;;;;;12.27;4.90;;;;;;;;;;5040006;28;20070;-72
2022/11/03 09:43:21;;;;;;;11.65;4.45;;;;;;;;;;5038067;28;20634;-72
2022/11/03 09:45:47;;;;;;;8.07;4.20;;;;;;;;;;5040961;28;20605;-72
2022/11/03 09:48:14;;;;;;;9.85;4.03;;;;;;;;;;5039336;28;20133;-72
2022/11/03 09:50:40;;;;;;;10.68;3.72;;;;;;;;;;5039252;28;20446;-72
2022/11/03 09:53:08;;;;;;;8.25;3.75;;;;;;;;;;5040137;28;20029;-72
2022/11/03 09:55:34;;;;;;;9.40;4.00;;;;;;;;;;5036617;28;20040;-72
2022/11/03 09:58:01;;;;;;;11.10;3.17;;;;;;;;;;5037636;28;20028;-72
2022/11/03 10:00:28;;;;;;;4.65;1.95;;;;;;;;;;5043585;28;20075;-71
2022/11/03 10:02:54;;;;;;;10.13;3.35;;;;;;;;;;5041354;28;20128;-72
2022/11/03 10:05:23;;;;;;;8.95;2.75;;;;;;;;;;5043653;28;20347;-72
2022/11/03 10:07:49;;;;;;;8.70;2.10;;;;;;;;;;5039014;28;20037;-72
2022/11/03 10:10:17;;;;;;;5.25;1.13;;;;;;;;;;5041150;28;20128;-72
2022/11/03 10:12:43;;;;;;;7.72;2.42;;;;;;;;;;5018257;28;20036;-72
2022/11/03 10:15:16;;;;;;;10.38;3.22;;;;;;;;;;5021579;28;20515;-72
2022/11/03 10:17:43;;;;;;;8.88;2.88;;;;;;;;;;5036309;28;20061;-72
2022/11/03 10:20:10;;;;;;;9.38;2.17;;;;;;;;;;5032822;28;20042;-72
2022/11/03 10:22:36;;;;;;;9.10;2.70;;;;;;;;;;5038684;28;20039;-72
2022/11/03 10:25:21;;;;;;;11.10;3.17;;;;;;;;;;5041636;28;20033;-72
2022/11/03 10:27:47;;;;;;;27.42;4.30;;;;;;;;;;5035594;28;20056;-72
2022/11/03 10:30:13;;;;;;;16.33;3.20;;;;;;;;;;5041031;28;20037;-71
2022/11/03 10:32:40;;;;;;;9.02;2.35;;;;;;;;;;5039707;28;20132;-72
2022/11/03 10:35:25;;;;;;;9.68;2.65;;;;;;;;;;5039152;28;20040;-72
2022/11/03 10:37:51;;;;;;;4.57;1.33;;;;;;;;;;5042379;28;20564;-72
2022/11/03 10:40:36;;;;;;;4.40;1.73;;;;;;;;;;5039565;28;20032;-72
2022/11/03 10:43:02;;;;;;;6.65;2.17;;;;;;;;;;5039035;28;20382;-72
2022/11/03 10:45:28;;;;;;;3.25;1.00;;;;;;;;;;5042819;28;20052;-72
2022/11/03 10:48:01;;;;;;;5.20;1.33;;;;;;;;;;5038604;28;20041;-72
2022/11/03 10:50:27;;;;;;;6.22;1.30;;;;;;;;;;5040436;28;20041;-72
2022/11/03 10:52:54;;;;;;;14.48;1.50;;;;;;;;;;5018378;28;20033;-72
2022/11/03 10:55:21;;;;;;;4.25;1.23;;;;;;;;;;5039161;28;20432;-72
2022/11/03 10:57:48;;;;;;;2.05;0.80;;;;;;;;;;5038043;28;20065;-72
2022/11/03 11:00:15;;;;;;;5.65;2.20;;;;;;;;;;5039896;28;20355;-72
2022/11/03 11:02:42;;;;;;;6.70;2.00;;;;;;;;;;5036562;28;20033;-72
2022/11/03 11:05:13;;;;;;;9.25;2.00;;;;;;;;;;5034101;28;20517;-72
2022/11/03 11:07:40;;;;;;;8.23;2.10;;;;;;;;;;5040001;28;20066;-72
2022/11/03 11:10:08;;;;;;;8.07;2.47;;;;;;;;;;5043457;28;20036;-72
2022/11/03 11:12:34;;;;;;;6.55;2.00;;;;;;;;;;5041787;28;20026;-72
2022/11/03 11:15:01;;;;;;;5.70;2.28;;;;;;;;;;5042427;28;20754;-72
2022/11/03 11:17:36;;;;;;;9.77;3.25;;;;;;;;;;5040970;28;20179;-72
2022/11/03 11:20:20;;;;;;;10.48;3.08;;;;;;;;;;5040214;28;20114;-71
2022/11/03 11:22:46;;;;;;;8.88;2.45;;;;;;;;;;5033472;28;20034;-72
2022/11/03 11:25:12;;;;;;;7.57;2.15;;;;;;;;;;5042555;28;20103;-71
2022/11/03 11:27:38;;;;;;;5.80;1.83;;;;;;;;;;5043448;28;20731;-71
2022/11/03 11:30:06;;;;;;;6.82;2.00;;;;;;;;;;5037899;28;20112;-72
2022/11/03 11:32:41;;;;;;;10.98;2.45;;;;;;;;;;5032301;28;20112;-72
2022/11/03 11:35:11;;;;;;;8.05;2.08;;;;;;;;;;5037797;28;20033;-72
2022/11/03 11:37:37;;;;;;;5.47;2.15;;;;;;;;;;5024463;28;20518;-71
2022/11/03 11:40:11;;;;;;;13.23;2.70;;;;;;;;;;5036952;28;20104;-72
2022/11/03 11:42:56;;;;;;;7.78;2.40;;;;;;;;;;5034193;28;20033;-72
2022/11/03 11:45:42;;;;;;;6.10;2.55;;;;;;;;;;5033708;28;20119;-71
2022/11/03 11:48:16;;;;;;;10.30;2.58;;;;;;;;;;5041562;28;20122;-72
2022/11/03 11:50:42;;;;;;;6.65;2.45;;;;;;;;;;5039487;28;20378;-72
2022/11/03 11:53:12;;;;;;;7.40;2.88;;;;;;;;;;5038823;28;20036;-71
2022/11/03 11:55:50;;;;;;;11.15;3.22;;;;;;;;;;5019137;28;20837;-72
2022/11/03 11:58:19;;;;;;;8.93;2.67;;;;;;;;;;5040314;28;20037;-73
2022/11/03 12:00:56;;;;;;;9.38;3.28;;;;;;;;;;5021168;28;20030;-72
2022/11/03 12:03:25;;;;;;;8.60;2.65;;;;;;;;;;5031175;28;20029;-72
2022/11/03 12:05:51;;;;;;;10.50;2.88;;;;;;;;;;5031821;28;20037;-71
2022/11/03 12:08:17;;;;;;;9.55;3.50;;;;;;;;;;5031999;28;20107;-72
2022/11/03 12:10:51;;;;;;;13.82;3.63;;;;;;;;;;5035915;28;20056;-72
2022/11/03 12:13:43;;;;;;;8.52;2.47;;;;;;;;;;5035647;28;20038;-71
2022/11/03 12:16:10;;;;;;;8.88;3.22;;;;;;;;;;5027697;28;20520;-71
2022/11/03 12:18:36;;;;;;;10.10;2.90;;;;;;;;;;5036219;28;20033;-71
2022/11/03 12:21:04;;;;;;;6.35;2.33;;;;;;;;;;5038507;28;20036;-71
2022/11/03 12:23:45;;;;;;;7.07;2.53;;;;;;;;;;5035158;28;20029;-71
2022/11/03 12:26:16;;;;;;;14.48;2.63;;;;;;;;;;5017934;28;20040;-71
2022/11/03 12:28:42;;;;;;;9.27;2.60;;;;;;;;;;5031903;28;20040;-71
2022/11/03 12:31:08;;;;;;;7.78;2.40;;;;;;;;;;5035085;28;20059;-72
2022/11/03 12:33:34;;;;;;;6.68;1.80;;;;;;;;;;5036696;28;20025;-71
2022/11/03 12:36:00;;;;;;;12.43;2.72;;;;;;;;;;5035868;28;20078;-72
2022/11/03 12:38:26;;;;;;;10.43;3.25;;;;;;;;;;5017378;28;20040;-72
2022/11/03 12:40:52;;;;;;;7.95;3.38;;;;;;;;;;5035523;28;20033;-72
2022/11/03 12:43:19;;;;;;;6.85;2.78;;;;;;;;;;5039484;28;20055;-71
2022/11/03 12:45:45;;;;;;;7.95;3.00;;;;;;;;;;5037196;28;20485;-72
2022/11/03 12:48:11;;;;;;;9.02;2.92;;;;;;;;;;5047589;28;20032;-72
2022/11/03 12:50:38;;;;;;;9.43;3.67;;;;;;;;;;5037899;28;20526;-71
2022/11/03 12:53:05;;;;;;;15.88;3.80;;;;;;;;;;5036968;28;20052;-71
2022/11/03 12:55:31;;;;;;;13.50;4.32;;;;;;;;;;5037331;28;20032;-71
2022/11/03 12:57:57;;;;;;;10.30;3.33;;;;;;;;;;5044470;28;20037;-70
2022/11/03 13:00:23;;;;;;;9.85;3.15;;;;;;;;;;5042794;28;20032;-71
2022/11/03 13:02:49;;;;;;;10.07;3.67;;;;;;;;;;5041032;28;20062;-72
2022/11/03 13:05:15;;;;;;;13.45;2.78;;;;;;;;;;5034469;28;20565;-71
2022/11/03 13:07:42;;;;;;;8.70;2.30;;;;;;;;;;5035073;28;20041;-71
2022/11/03 13:10:08;;;;;;;10.80;1.60;;;;;;;;;;5038908;28;20044;-71
2022/11/03 13:12:35;;;;;;;8.35;2.60;;;;;;;;;;5035464;28;20072;-72
2022/11/03 13:15:06;;;;;;;14.93;3.92;;;;;;;;;;5038396;28;20056;-71
2022/11/03 13:17:32;;;;;;;10.88;3.72;;;;;;;;;;5042439;28;20065;-72
2022/11/03 13:19:58;;;;;;;9.63;4.10;;;;;;;;;;5040615;28;20490;-71
2022/11/03 13:22:25;;;;;;;9.88;3.65;;;;;;;;;;5046857;28;20039;-71
2022/11/03 13:24:50;;;;;;;12.13;4.15;;;;;;;;;;5039562;28;20037;-71
2022/11/03 13:27:16;;;;;;;12.60;4.75;;;;;;;;;;5036298;28;20034;-71
2022/11/03 13:29:42;;;;;;;8.27;2.25;;;;;;;;;;5025310;28;20029;-72
2022/11/03 13:32:09;;;;;;;4.97;1.85;;;;;;;;;;5038100;28;20033;-72
2022/11/03 13:34:34;;;;;;;5.60;2.10;;;;;;;;;;5043410;28;20029;-71
2022/11/03 13:37:01;;;;;;;6.65;1.85;;;;;;;;;;5045021;28;20024;-72
2022/11/03 13:39:27;;;;;;;10.40;3.03;;;;;;;;;;5021597;28;20139;-72
2022/11/03 13:41:53;;;;;;;9.63;1.90;;;;;;;;;;5041783;28;20045;-72
2022/11/03 13:44:19;;;;;;;6.60;2.20;;;;;;;;;;5047244;28;20466;-72
2022/11/03 13:46:45;;;;;;;9.77;2.20;;;;;;;;;;5042745;28;20127;-72
2022/11/03 13:49:10;;;;;;;9.38;2.58;;;;;;;;;;5040087;28;20085;-72
2022/11/03 13:51:36;;;;;;;7.38;2.53;;;;;;;;;;5043438;28;20056;-72
2022/11/03 13:54:02;;;;;;;13.68;3.58;;;;;;;;;;5040147;28;20037;-72
2022/11/03 13:56:28;;;;;;;11.65;2.63;;;;;;;;;;5037093;28;20025;-71
2022/11/03 13:58:55;;;;;;;9.35;3.78;;;;;;;;;;5035091;28;20068;-71
2022/11/03 14:01:21;;;;;;;9.02;3.35;;;;;;;;;;5018149;28;20028;-71
2022/11/03 14:03:47;;;;;;;13.82;3.83;;;;;;;;;;5039556;28;20069;-72
2022/11/03 14:06:13;;;;;;;11.57;4.35;;;;;;;;;;5042022;28;20036;-71
2022/11/03 14:08:39;;;;;;;15.18;4.30;;;;;;;;;;5040457;28;20417;-71
2022/11/03 14:13:49;;;;;;;16.15;4.53;;;;;;;;;;5049762;28;20857;-71
2022/11/03 14:16:16;;;;;;;13.63;5.30;;;;;;;;;;5028221;28;20029;-71
2022/11/03 14:18:42;;;;;;;12.65;4.30;;;;;;;;;;5038643;28;20034;-72
2022/11/03 14:21:08;;;;;;;14.20;6.82;;;;;;;;;;5045005;28;20028;-71
2022/11/03 14:23:34;;;;;;;18.13;8.27;;;;;;;;;;5043511;28;20033;-70
2022/11/03 14:26:00;;;;;;;21.08;8.40;;;;;;;;;;5039873;28;20030;-72
2022/11/03 14:28:26;;;;;;;22.65;8.18;;;;;;;;;;5041651;28;20919;-71
2022/11/03 14:30:54;;;;;;;23.92;7.60;;;;;;;;;;5038210;28;20033;-71
2022/11/03 14:33:20;;;;;;;19.38;7.93;;;;;;;;;;5036527;28;20462;-71
2022/11/03 14:35:46;;;;;;;15.20;5.93;;;;;;;;;;5036940;28;20025;-71
2022/11/03 14:38:12;;;;;;;16.42;6.32;;;;;;;;;;5038137;28;20096;-71
2022/11/03 14:43:23;;;;;;;3.30;1.60;;;;;;;;;;5038455;28;20477;-71
2022/11/03 14:45:49;;;;;;;3.90;1.50;;;;;;;;;;5037479;28;20045;-71
2022/11/03 14:48:15;;;;;;;8.35;1.77;;;;;;;;;;5034473;28;20032;-71
2022/11/03 14:50:41;;;;;;;4.35;1.73;;;;;;;;;;5038646;28;20063;-72
2022/11/03 14:53:07;;;;;;;6.35;1.70;;;;;;;;;;5035935;28;20379;-72
2022/11/03 14:55:33;;;;;;;6.72;1.88;;;;;;;;;;5037376;28;20033;-71
2022/11/03 14:57:59;;;;;;;5.45;2.28;;;;;;;;;;5033754;28;20044;-71
2022/11/03 15:00:25;;;;;;;4.72;1.98;;;;;;;;;;5040692;28;20036;-72
2022/11/03 15:02:51;;;;;;;4.07;1.92;;;;;;;;;;5035843;28;20037;-72
2022/11/03 15:08:01;;;;;;;6.05;2.45;;;;;;;;;;5041602;28;20056;-72